Terminal Aerodrome Forecast
Issued by NWS

Home | Current Version | Previous Version | Text Only | Print | Product List | Glossary On
Versions: 1 2 3 4 5 6 7 8 9 10 11 12 13 14 15 16 17 18
000
FTUS43 KOAX 272332
TAFBFF
TAF
KBFF 272332Z 2800/2824 34004KT P6SM OVC050
      TEMPO 2810/2813 1SM BR SCT005 BKN009
     FM281500 17006KT P6SM BKN070=

USA.gov is the U.S. government's official web portal to all federal, state and local government web resources and services.